Marshfield Hills, Massachusetts
Current Conditions -  °F | °C
As of 4:50 AM on Thursday 23 Oct 2014 (Local Time) from KGHG Reporting Station
Light Rain Light Rain  
Wind Chill: 57°   Ceiling: 500
Heat Index: 57°   Visibility: 2.5mi
Dew Point: 55°   Wind: 12mph
Humidity: 94%   Direction: 40°NE
Pressure: 29.65"   Gusts: 31mph
Location:  42.13°N, 70.76°W
Report Text: KGHG 230850Z AUTO 04010G27KT 350V360 2 1/2SM -RA OVC005 14/13 A2965 RMK AO2
Loading
Personal Weather Stations






























Interactive Weather Map
Tropical Storm Tracking
New forecast layout! Learn more

10-Day Weather Forecast

Advertisements
Track Severe Weather on mobile